createdAt,value
2018-04-27T00:00:36.508Z,99.99
2018-04-27T00:01:36.475Z,99.99
2018-04-27T00:02:36.455Z,99.99
2018-04-27T00:03:36.423Z,99.99
2018-04-27T00:04:36.393Z,99.99
2018-04-27T00:05:36.116Z,99.99
2018-04-27T00:06:36.337Z,99.99
2018-04-27T00:07:36.316Z,99.99
2018-04-27T00:08:36.281Z,99.99
2018-04-27T00:09:36.259Z,99.99
2018-04-27T00:10:36.225Z,99.99
2018-04-27T00:11:36.201Z,99.99
2018-04-27T00:12:36.171Z,99.99
2018-04-27T00:13:36.139Z,99.99
2018-04-27T00:14:36.115Z,99.99
2018-04-27T00:15:36.087Z,99.99
2018-04-27T00:16:36.060Z,99.99
2018-04-27T00:17:36.035Z,99.99
2018-04-27T00:18:36.007Z,99.99
2018-04-27T00:19:35.976Z,99.99
2018-04-27T00:20:35.946Z,99.99
2018-04-27T00:21:35.921Z,99.99
2018-04-27T00:22:35.893Z,99.99
2018-04-27T00:23:35.864Z,99.99
2018-04-27T00:24:35.841Z,99.99
2018-04-27T00:25:35.806Z,99.99
2018-04-27T00:26:35.781Z,99.99
2018-04-27T00:27:35.503Z,99.99
2018-04-27T00:28:35.478Z,99.99
2018-04-27T00:29:35.704Z,99.99
2018-04-27T00:30:35.667Z,99.99
2018-04-27T00:31:35.393Z,99.99
2018-04-27T00:32:35.622Z,99.99
2018-04-27T00:33:35.586Z,99.99
2018-04-27T00:34:35.309Z,99.99
2018-04-27T00:35:35.530Z,99.99
2018-04-27T00:36:35.503Z,99.99
2018-04-27T00:37:35.478Z,99.99
2018-04-27T00:38:35.448Z,99.99
2018-04-27T00:39:35.173Z,99.99
2018-04-27T00:40:35.145Z,99.99
2018-04-27T00:41:35.365Z,99.99
2018-04-27T00:42:35.336Z,99.99
2018-04-27T00:43:35.309Z,99.99
2018-04-27T00:44:35.280Z,99.99
2018-04-27T00:45:35.253Z,99.99
2018-04-27T00:46:35.224Z,99.99
2018-04-27T00:47:35.198Z,99.99
2018-04-27T00:48:35.171Z,99.99
2018-04-27T00:49:35.144Z,99.99
2018-04-27T00:50:35.112Z,99.99
2018-04-27T00:51:34.839Z,99.99
2018-04-27T00:52:35.060Z,99.99
2018-04-27T00:53:35.041Z,99.99
2018-04-27T00:54:34.756Z,99.99
2018-04-27T00:55:34.978Z,99.99
2018-04-27T00:56:34.949Z,99.99
2018-04-27T00:57:34.915Z,99.99
2018-04-27T00:58:34.892Z,99.99
2018-04-27T00:59:34.873Z,99.99
2018-04-27T01:00:34.836Z,99.99
2018-04-27T01:01:34.809Z,99.99
2018-04-27T01:02:34.780Z,99.99
2018-04-27T01:03:34.754Z,99.99
2018-04-27T01:04:34.723Z,99.99
2018-04-27T01:05:34.697Z,99.99
2018-04-27T01:06:34.680Z,99.99
2018-04-27T01:07:34.639Z,99.99
2018-04-27T01:08:34.610Z,99.99
2018-04-27T01:09:34.586Z,99.99
2018-04-27T01:10:34.554Z,99.99
2018-04-27T01:11:34.531Z,99.99
2018-04-27T01:12:34.499Z,99.99
2018-04-27T01:13:34.475Z,99.99
2018-04-27T01:14:34.197Z,99.99
2018-04-27T01:15:34.421Z,99.99
2018-04-27T01:16:34.143Z,99.99
2018-04-27T01:17:34.364Z,99.99
2018-04-27T01:18:34.337Z,99.99
2018-04-27T01:19:34.058Z,99.99
2018-04-27T01:20:34.281Z,99.99
2018-04-27T01:21:34.250Z,99.99
2018-04-27T01:22:34.224Z,99.99
2018-04-27T01:23:34.196Z,99.99
2018-04-27T01:24:33.918Z,99.99
2018-04-27T01:25:33.890Z,99.99
2018-04-27T01:26:34.114Z,99.99
2018-04-27T01:27:34.084Z,99.99
2018-04-27T01:28:34.056Z,99.99
2018-04-27T01:29:33.781Z,99.99
2018-04-27T01:30:33.998Z,99.99
2018-04-27T01:31:33.968Z,99.99
2018-04-27T01:32:33.941Z,99.99
2018-04-27T01:33:33.909Z,99.99
2018-04-27T01:34:33.888Z,99.99
2018-04-27T01:35:33.858Z,99.99
2018-04-27T01:36:33.581Z,99.99
2018-04-27T01:37:33.801Z,99.99
2018-04-27T01:38:33.771Z,99.99
2018-04-27T01:39:33.748Z,99.99
2018-04-27T01:40:33.718Z,99.99
2018-04-27T01:41:33.694Z,99.99
2018-04-27T01:42:33.662Z,99.99
2018-04-27T01:43:33.635Z,99.99
2018-04-27T01:44:33.605Z,99.99
2018-04-27T01:45:33.581Z,99.99
2018-04-27T01:46:33.546Z,99.99
2018-04-27T01:47:33.527Z,99.99
2018-04-27T01:48:33.492Z,99.99
2018-04-27T01:49:33.467Z,99.99
2018-04-27T01:50:33.437Z,99.99
2018-04-27T01:51:33.417Z,99.99
2018-04-27T01:52:33.384Z,99.99
2018-04-27T01:53:33.353Z,99.99
2018-04-27T01:54:33.324Z,99.99
2018-04-27T01:55:33.294Z,99.99
2018-04-27T01:56:33.275Z,99.99
2018-04-27T01:57:33.241Z,99.99
2018-04-27T01:58:33.211Z,99.99
2018-04-27T01:59:33.286Z,99.99
2018-04-27T02:00:33.157Z,99.99
2018-04-27T02:01:33.129Z,99.99
2018-04-27T02:02:33.100Z,99.99
2018-04-27T02:03:33.074Z,99.99
2018-04-27T02:04:33.047Z,99.99
2018-04-27T02:05:33.016Z,99.99
2018-04-27T02:06:32.988Z,99.99
2018-04-27T02:07:32.713Z,99.99
2018-04-27T02:08:32.932Z,99.99
2018-04-27T02:09:32.655Z,99.99
2018-04-27T02:10:32.881Z,99.99
2018-04-27T02:11:32.843Z,99.99
2018-04-27T02:12:32.817Z,99.99
2018-04-27T02:13:32.790Z,99.99
2018-04-27T02:14:32.761Z,99.99
2018-04-27T02:15:32.736Z,99.99
2018-04-27T02:16:32.708Z,99.99
2018-04-27T02:17:32.680Z,99.99
2018-04-27T02:18:32.650Z,99.99
2018-04-27T02:19:32.630Z,99.99
2018-04-27T02:20:32.347Z,99.99
2018-04-27T02:21:32.317Z,99.99
2018-04-27T02:22:32.539Z,99.99
2018-04-27T02:23:32.262Z,99.99
2018-04-27T02:24:32.480Z,99.99
2018-04-27T02:25:32.206Z,99.99
2018-04-27T02:26:32.429Z,99.99
2018-04-27T02:27:32.397Z,99.99
2018-04-27T02:28:32.368Z,99.99
2018-04-27T02:29:32.340Z,99.99
2018-04-27T02:30:32.315Z,99.99
2018-04-27T02:31:32.287Z,99.99
2018-04-27T02:32:32.257Z,99.99
2018-04-27T02:33:32.231Z,99.99
2018-04-27T02:34:32.205Z,99.99
2018-04-27T02:35:32.181Z,99.99
2018-04-27T02:36:32.147Z,99.99
2018-04-27T02:37:32.113Z,99.99
2018-04-27T02:38:32.086Z,99.99
2018-04-27T02:39:32.063Z,99.99
2018-04-27T02:40:32.029Z,99.99
2018-04-27T02:41:32.009Z,99.99
2018-04-27T02:42:31.736Z,99.99
2018-04-27T02:43:31.952Z,99.99
2018-04-27T02:44:31.918Z,99.99
2018-04-27T02:45:31.888Z,99.99
2018-04-27T02:46:31.612Z,99.99
2018-04-27T02:47:31.835Z,99.99
2018-04-27T02:48:31.806Z,99.99
2018-04-27T02:49:31.532Z,99.99
2018-04-27T02:50:31.752Z,99.99
2018-04-27T02:51:31.723Z,99.99
2018-04-27T02:52:31.693Z,99.99
2018-04-27T02:53:31.665Z,99.99
2018-04-27T02:54:31.639Z,99.99
2018-04-27T02:55:31.360Z,99.99
2018-04-27T02:56:31.333Z,99.99
2018-04-27T02:57:31.552Z,99.99
2018-04-27T02:58:31.275Z,99.99
2018-04-27T02:59:31.508Z,99.99
2018-04-27T03:00:31.470Z,99.99
2018-04-27T03:01:31.443Z,99.99
2018-04-27T03:02:31.411Z,99.99
2018-04-27T03:03:31.384Z,99.99
2018-04-27T03:04:31.366Z,99.99
2018-04-27T03:05:31.080Z,99.99
2018-04-27T03:06:31.297Z,99.99
2018-04-27T03:07:31.272Z,99.99
2018-04-27T03:08:31.241Z,99.99
2018-04-27T03:09:31.216Z,99.99
2018-04-27T03:10:31.289Z,99.99
2018-04-27T03:11:31.156Z,99.99
2018-04-27T03:12:31.137Z,99.99
2018-04-27T03:13:31.104Z,99.99
2018-04-27T03:14:31.191Z,99.99
2018-04-27T03:15:31.041Z,99.99
2018-04-27T03:16:30.768Z,99.99
2018-04-27T03:17:30.987Z,99.99
2018-04-27T03:18:30.957Z,99.99
2018-04-27T03:19:30.931Z,99.99
2018-04-27T03:20:30.902Z,99.99
2018-04-27T03:21:30.876Z,99.99
2018-04-27T03:22:30.851Z,99.99
2018-04-27T03:23:30.818Z,99.99
2018-04-27T03:24:30.790Z,99.99
2018-04-27T03:25:30.760Z,99.99
2018-04-27T03:26:30.487Z,99.99
2018-04-27T03:27:30.709Z,99.99
2018-04-27T03:28:30.678Z,99.99
2018-04-27T03:29:30.650Z,99.99
2018-04-27T03:30:30.380Z,99.99
2018-04-27T03:31:30.344Z,99.99
2018-04-27T03:32:30.568Z,99.99
2018-04-27T03:33:30.545Z,99.99
2018-04-27T03:34:30.510Z,99.99
2018-04-27T03:35:30.480Z,99.99
2018-04-27T03:36:30.456Z,99.99
2018-04-27T03:37:30.177Z,99.99
2018-04-27T03:38:30.397Z,99.99
2018-04-27T03:39:30.374Z,99.99
2018-04-27T03:40:30.092Z,99.99
2018-04-27T03:41:30.315Z,99.99
2018-04-27T03:42:30.285Z,99.99
2018-04-27T03:43:30.257Z,99.99
2018-04-27T03:44:30.230Z,99.99
2018-04-27T03:45:30.264Z,99.99
2018-04-27T03:46:30.176Z,99.99
2018-04-27T03:47:30.145Z,99.99
2018-04-27T03:48:30.115Z,99.99
2018-04-27T03:49:30.084Z,99.99
2018-04-27T03:50:29.811Z,99.99
2018-04-27T03:51:30.031Z,99.99
2018-04-27T03:52:30.000Z,99.99
2018-04-27T03:53:29.975Z,99.99
2018-04-27T03:54:29.948Z,99.99
2018-04-27T03:55:29.918Z,99.99
2018-04-27T03:56:29.899Z,99.99
2018-04-27T03:57:29.862Z,99.99
2018-04-27T03:58:29.838Z,99.99
2018-04-27T03:59:29.805Z,99.99
2018-04-27T04:00:29.778Z,99.99
2018-04-27T04:01:29.499Z,99.99
2018-04-27T04:02:29.474Z,99.99
2018-04-27T04:03:29.690Z,99.99
2018-04-27T04:04:29.667Z,99.99
2018-04-27T04:05:29.636Z,99.99
2018-04-27T04:06:29.359Z,99.99
2018-04-27T04:07:29.590Z,99.99
2018-04-27T04:08:29.548Z,99.99
2018-04-27T04:09:29.533Z,99.99
2018-04-27T04:10:29.494Z,99.99
2018-04-27T04:11:29.467Z,99.99
2018-04-27T04:12:29.440Z,99.99
2018-04-27T04:13:29.412Z,99.99
2018-04-27T04:14:29.383Z,99.99
2018-04-27T04:15:29.355Z,99.99
2018-04-27T04:16:29.077Z,99.99
2018-04-27T04:17:29.297Z,99.99
2018-04-27T04:18:29.324Z,99.99
2018-04-27T04:19:28.994Z,99.99
2018-04-27T04:20:29.212Z,99.99
2018-04-27T04:21:29.182Z,99.99
2018-04-27T04:22:28.906Z,99.99
2018-04-27T04:23:29.127Z,99.99
2018-04-27T04:24:29.096Z,99.99
2018-04-27T04:25:29.071Z,99.99
2018-04-27T04:26:28.794Z,99.99
2018-04-27T04:27:29.012Z,99.99
2018-04-27T04:28:28.983Z,99.99
2018-04-27T04:29:28.711Z,99.99
2018-04-27T04:30:28.928Z,99.99
2018-04-27T04:31:28.897Z,99.99
2018-04-27T04:32:29.027Z,99.99
2018-04-27T04:33:28.840Z,99.99
2018-04-27T04:34:28.566Z,99.99
2018-04-27T04:35:28.784Z,99.99
2018-04-27T04:36:28.511Z,99.99
2018-04-27T04:37:28.785Z,99.99
2018-04-27T04:38:28.844Z,99.99
2018-04-27T04:39:28.675Z,99.99
2018-04-27T04:40:28.650Z,99.99
2018-04-27T04:41:28.370Z,99.99
2018-04-27T04:42:28.340Z,99.99
2018-04-27T04:43:28.561Z,99.99
2018-04-27T04:44:28.283Z,99.99
2018-04-27T04:45:28.505Z,99.99
2018-04-27T04:46:28.477Z,99.99
2018-04-27T04:47:28.448Z,99.99
2018-04-27T04:48:28.420Z,99.99
2018-04-27T04:49:28.141Z,99.99
2018-04-27T04:50:28.362Z,99.99
2018-04-27T04:51:28.334Z,99.99
2018-04-27T04:52:28.474Z,99.99
2018-04-27T04:53:28.274Z,99.99
2018-04-27T04:54:28.250Z,99.99
2018-04-27T04:55:28.220Z,99.99
2018-04-27T04:56:28.192Z,99.99
2018-04-27T04:57:28.163Z,99.99
2018-04-27T04:58:28.139Z,99.99
2018-04-27T04:59:28.103Z,99.99
2018-04-27T05:00:28.081Z,99.99
2018-04-27T05:01:28.049Z,99.99
2018-04-27T05:02:28.025Z,99.99
2018-04-27T05:03:27.997Z,99.99
2018-04-27T05:04:27.716Z,99.99
2018-04-27T05:05:27.816Z,99.99
2018-04-27T05:06:27.909Z,99.99
2018-04-27T05:07:27.633Z,99.99
2018-04-27T05:08:27.605Z,99.99
2018-04-27T05:09:27.824Z,99.99
2018-04-27T05:10:27.880Z,99.99
2018-04-27T05:11:27.774Z,99.99
2018-04-27T05:12:27.743Z,99.99
2018-04-27T05:13:27.715Z,99.99
2018-04-27T05:14:27.437Z,99.99
2018-04-27T05:15:27.658Z,99.99
2018-04-27T05:16:27.638Z,99.99
2018-04-27T05:17:27.604Z,99.99
2018-04-27T05:18:27.578Z,99.99
2018-04-27T05:19:27.582Z,99.99
2018-04-27T05:20:27.521Z,99.99
2018-04-27T05:21:27.493Z,99.99
2018-04-27T05:22:27.465Z,99.99
2018-04-27T05:23:27.438Z,99.99
2018-04-27T05:24:27.411Z,99.99
2018-04-27T05:25:27.132Z,99.99
2018-04-27T05:26:27.352Z,99.99
2018-04-27T05:27:27.076Z,99.99
2018-04-27T05:28:27.297Z,99.99
2018-04-27T05:29:27.276Z,99.99
2018-04-27T05:30:27.242Z,99.99
2018-04-27T05:31:27.220Z,99.99
2018-04-27T05:32:27.201Z,99.99
2018-04-27T05:33:27.160Z,99.99
2018-04-27T05:34:26.883Z,99.99
2018-04-27T05:35:26.860Z,99.99
2018-04-27T05:36:27.077Z,99.99
2018-04-27T05:37:27.150Z,99.99
2018-04-27T05:38:26.777Z,99.99
2018-04-27T05:39:27.330Z,99.99
2018-04-27T05:40:26.982Z,99.97
2018-04-27T05:41:26.941Z,99.58
2018-04-27T05:42:26.913Z,99.64
2018-04-27T05:43:26.883Z,99.92
2018-04-27T05:44:26.611Z,99.16
2018-04-27T05:45:26.841Z,99.26
2018-04-27T05:46:26.811Z,98.69
2018-04-27T05:47:26.532Z,98.88
2018-04-27T05:48:26.755Z,98.4
2018-04-27T05:49:26.735Z,98.59
2018-04-27T05:50:26.701Z,98.21
2018-04-27T05:51:26.673Z,98.4
2018-04-27T05:52:26.647Z,98.12
2018-04-27T05:53:26.623Z,97.6
2018-04-27T05:54:26.592Z,97.78
2018-04-27T05:55:26.317Z,97.5
2018-04-27T05:56:26.542Z,97.41
2018-04-27T05:57:26.513Z,97.31
2018-04-27T05:58:26.238Z,96.93
2018-04-27T05:59:26.471Z,97.03
2018-04-27T06:00:26.432Z,96.26
2018-04-27T06:01:26.411Z,96.26
2018-04-27T06:02:26.391Z,95.98
2018-04-27T06:03:26.359Z,95.94
2018-04-27T06:04:26.334Z,95.36
2018-04-27T06:05:26.308Z,94.98
2018-04-27T06:06:26.284Z,94.51
2018-04-27T06:07:26.006Z,94.03
2018-04-27T06:08:26.230Z,93.7
2018-04-27T06:09:26.215Z,93.41
2018-04-27T06:10:26.183Z,93.13
2018-04-27T06:11:25.911Z,92.46
2018-04-27T06:12:26.139Z,92.56
2018-04-27T06:13:26.111Z,91.7
2018-04-27T06:14:26.084Z,91.51
2018-04-27T06:15:26.064Z,91.32
2018-04-27T06:16:26.036Z,90.75
2018-04-27T06:17:26.010Z,91.03
2018-04-27T06:18:25.989Z,90.37
2018-04-27T06:19:26.027Z,90.37
2018-04-27T06:20:25.693Z,90.28
2018-04-27T06:21:25.919Z,90.47
2018-04-27T06:22:25.898Z,89.99
2018-04-27T06:23:25.866Z,89.99
2018-04-27T06:24:25.597Z,89.8
2018-04-27T06:25:25.819Z,89.94
2018-04-27T06:26:25.797Z,88.89
2018-04-27T06:27:25.527Z,88.51
2018-04-27T06:28:25.752Z,88.6
2018-04-27T06:29:25.729Z,88.51
2018-04-27T06:30:25.742Z,88.04
2018-04-27T06:31:25.682Z,87.75
2018-04-27T06:32:25.657Z,87.56
2018-04-27T06:33:25.637Z,87.65
2018-04-27T06:34:25.614Z,87.18
2018-04-27T06:35:25.590Z,87.37
2018-04-27T06:36:25.566Z,87.03
2018-04-27T06:37:25.551Z,86.84
2018-04-27T06:38:25.524Z,86.46
2018-04-27T06:39:25.605Z,85.8
2018-04-27T06:40:25.477Z,86.27
2018-04-27T06:41:25.455Z,86.18
2018-04-27T06:42:25.438Z,85.6
2018-04-27T06:43:25.419Z,85.6
2018-04-27T06:44:25.392Z,85.13
2018-04-27T06:45:25.374Z,84.69
2018-04-27T06:46:25.115Z,84.6
2018-04-27T06:47:25.332Z,84.03
2018-04-27T06:48:25.065Z,84.31
2018-04-27T06:49:25.116Z,83.74
2018-04-27T06:50:25.271Z,83.74
2018-04-27T06:51:25.395Z,83.26
2018-04-27T06:52:24.985Z,83.07
2018-04-27T06:53:24.964Z,82.69
2018-04-27T06:54:25.189Z,82.35
2018-04-27T06:55:25.042Z,82.73
2018-04-27T06:56:24.903Z,82.17
2018-04-27T06:57:25.135Z,82.07
2018-04-27T06:58:25.113Z,81.78
2018-04-27T06:59:24.911Z,81.68
2018-04-27T07:00:25.074Z,81.49
2018-04-27T07:01:25.057Z,82.07
2018-04-27T07:02:25.036Z,81.21
2018-04-27T07:03:25.015Z,81.4
2018-04-27T07:04:24.997Z,81.21
2018-04-27T07:05:25.191Z,80.73
2018-04-27T07:06:24.955Z,80.26
2018-04-27T07:07:24.941Z,79.49
2018-04-27T07:08:24.912Z,79.59
2018-04-27T07:09:24.901Z,79.02
2018-04-27T07:10:24.877Z,78.35
2018-04-27T07:11:24.609Z,78.06
2018-04-27T07:12:25.093Z,77.97
2018-04-27T07:13:24.817Z,78.06
2018-04-27T07:14:25.063Z,77.4
2018-04-27T07:15:24.781Z,77.62
2018-04-27T07:16:24.761Z,77.15
2018-04-27T07:17:24.745Z,76.86
2018-04-27T07:18:24.723Z,76.48
2018-04-27T07:19:24.711Z,76.29
2018-04-27T07:20:24.688Z,75.81
2018-04-27T07:21:24.671Z,75.05
2018-04-27T07:22:24.763Z,74.48
2018-04-27T07:23:24.397Z,74.1
2018-04-27T07:24:24.610Z,73.91
2018-04-27T07:25:24.597Z,74.01
2018-04-27T07:26:24.579Z,73.47
2018-04-27T07:27:24.563Z,73.47
2018-04-27T07:28:24.543Z,72.89
2018-04-27T07:29:24.526Z,72.61
2018-04-27T07:30:24.258Z,72.42
2018-04-27T07:31:24.491Z,71.94
2018-04-27T07:32:24.225Z,71.75
2018-04-27T07:33:24.457Z,70.98
2018-04-27T07:34:24.439Z,70.92
2018-04-27T07:35:24.424Z,70.45
2018-04-27T07:36:24.406Z,70.45
2018-04-27T07:37:24.389Z,69.68
2018-04-27T07:38:24.455Z,69.31
2018-04-27T07:39:24.358Z,68.73
2018-04-27T07:40:24.090Z,68.73
2018-04-27T07:41:24.322Z,68.06
2018-04-27T07:42:24.307Z,67.81
2018-04-27T07:43:24.299Z,67.33
2018-04-27T07:44:24.273Z,67.24
2018-04-27T07:45:24.007Z,67.05
2018-04-27T07:46:24.239Z,66.56
2018-04-27T07:47:24.224Z,66.19
2018-04-27T07:48:23.954Z,65.71
2018-04-27T07:49:24.187Z,65.33
2018-04-27T07:50:24.170Z,65.61
2018-04-27T07:51:24.177Z,65.84
2018-04-27T07:52:24.146Z,65.36
2018-04-27T07:53:24.119Z,64.78
2018-04-27T07:54:24.304Z,64.5
2018-04-27T07:55:24.194Z,64.12
2018-04-27T07:56:24.075Z,63.96
2018-04-27T07:57:24.057Z,63.57
2018-04-27T07:58:24.306Z,63.48
2018-04-27T07:59:24.025Z,63
2018-04-27T08:00:24.008Z,62.65
2018-04-27T08:01:23.747Z,62.17
2018-04-27T08:02:24.042Z,62.65
2018-04-27T08:03:23.962Z,62.08
2018-04-27T08:04:23.954Z,61.12
2018-04-27T08:05:23.686Z,60.48
2018-04-27T08:06:23.939Z,60.38
2018-04-27T08:07:23.902Z,60.19
2018-04-27T08:08:24.003Z,60.19
2018-04-27T08:09:23.876Z,59.62
2018-04-27T08:10:23.869Z,59.05
2018-04-27T08:11:23.932Z,58.76
2018-04-27T08:12:23.832Z,58.18
2018-04-27T08:13:23.571Z,58.18
2018-04-27T08:14:23.558Z,58.02
2018-04-27T08:15:23.793Z,57.83
2018-04-27T08:16:23.779Z,57.54
2018-04-27T08:17:23.770Z,56.97
2018-04-27T08:18:23.760Z,57.16
2018-04-27T08:19:23.775Z,56.59
2018-04-27T08:20:23.726Z,56.1
2018-04-27T08:21:23.711Z,56.3
2018-04-27T08:22:23.699Z,56.32
2018-04-27T08:23:23.685Z,56.04
2018-04-27T08:24:23.669Z,55.94
2018-04-27T08:25:23.652Z,56.04
2018-04-27T08:26:23.647Z,55.65
2018-04-27T08:27:23.642Z,55.18
2018-04-27T08:28:24.047Z,55.36
2018-04-27T08:29:23.351Z,55.46
2018-04-27T08:30:23.619Z,55.27
2018-04-27T08:31:23.577Z,54.6
2018-04-27T08:32:23.561Z,54.7
2018-04-27T08:33:23.544Z,54.5
2018-04-27T08:34:23.533Z,54.44
2018-04-27T08:35:23.525Z,54.63
2018-04-27T08:36:23.504Z,53.86
2018-04-27T08:37:23.492Z,53.67
2018-04-27T08:38:23.560Z,53.48
2018-04-27T08:39:23.218Z,53.09
2018-04-27T08:40:23.451Z,52.74
2018-04-27T08:41:23.444Z,52.16
2018-04-27T08:42:23.439Z,51.51
2018-04-27T08:43:23.421Z,51.42
2018-04-27T08:44:23.405Z,50.56
2018-04-27T08:45:23.388Z,50.56
2018-04-27T08:46:23.131Z,50.65
2018-04-27T08:47:23.358Z,50.17
2018-04-27T08:48:23.346Z,50.27
2018-04-27T08:49:23.336Z,49.72
2018-04-27T08:50:23.503Z,49.62
2018-04-27T08:51:23.310Z,49.82
2018-04-27T08:52:23.298Z,49.33
2018-04-27T08:53:23.283Z,49.15
2018-04-27T08:54:23.272Z,49.05
2018-04-27T08:55:23.259Z,48.57
2018-04-27T08:56:23.349Z,49.05
2018-04-27T08:57:22.988Z,48.47
2018-04-27T08:58:23.223Z,47.89
2018-04-27T08:59:23.212Z,47.89
2018-04-27T09:00:23.196Z,46.94
2018-04-27T09:01:23.192Z,47.34
2018-04-27T09:02:23.179Z,47.25
2018-04-27T09:03:23.159Z,46.19
2018-04-27T09:04:23.153Z,46.28
2018-04-27T09:05:23.139Z,45.9
2018-04-27T09:06:23.463Z,45.42
2018-04-27T09:07:23.117Z,45.11
2018-04-27T09:08:23.103Z,45.3
2018-04-27T09:09:22.843Z,45.21
2018-04-27T09:10:23.081Z,45.59
2018-04-27T09:11:23.084Z,45.3
2018-04-27T09:12:23.058Z,45.3
2018-04-27T09:13:23.045Z,45.3
2018-04-27T09:14:23.038Z,45.68
2018-04-27T09:15:23.024Z,45.3
2018-04-27T09:16:23.240Z,45.21
2018-04-27T09:17:23.011Z,45.4
2018-04-27T09:18:22.988Z,45.01
2018-04-27T09:19:22.982Z,45.11
2018-04-27T09:20:23.045Z,45.11
2018-04-27T09:21:22.954Z,45.01
2018-04-27T09:22:22.941Z,45.21
2018-04-27T09:23:22.934Z,44.73
2018-04-27T09:24:22.922Z,44.54
2018-04-27T09:25:22.912Z,43.36
2018-04-27T09:26:22.896Z,43.17
2018-04-27T09:27:22.891Z,43.27
2018-04-27T09:28:22.882Z,43.44
2018-04-27T09:29:22.865Z,43.15
2018-04-27T09:30:22.604Z,43.53
2018-04-27T09:31:22.842Z,43.74
2018-04-27T09:32:22.865Z,43.46
2018-04-27T09:33:22.817Z,43.55
2018-04-27T09:34:22.810Z,43.65
2018-04-27T09:35:22.546Z,43.36
2018-04-27T09:36:22.784Z,43.55
2018-04-27T09:37:22.772Z,43.65
2018-04-27T09:38:22.758Z,43.17
2018-04-27T09:39:22.744Z,42.98
2018-04-27T09:40:22.736Z,42.69
2018-04-27T09:41:22.723Z,42.4
2018-04-27T09:42:22.713Z,42.5
2018-04-27T09:43:22.700Z,42.11
2018-04-27T09:44:22.714Z,41.54
2018-04-27T09:45:22.428Z,41.8
2018-04-27T09:46:22.659Z,41.71
2018-04-27T09:47:22.651Z,41.33
2018-04-27T09:48:22.648Z,41.52
2018-04-27T09:49:22.622Z,41.04
2018-04-27T09:50:22.608Z,40.47
2018-04-27T09:51:22.351Z,40.47
2018-04-27T09:52:22.587Z,40.08
2018-04-27T09:53:22.569Z,39.6
2018-04-27T09:54:22.555Z,39.5
2018-04-27T09:55:22.547Z,39.77
2018-04-27T09:56:22.531Z,39.7
2018-04-27T09:57:22.537Z,39.48
2018-04-27T09:58:22.504Z,39.58
2018-04-27T09:59:22.494Z,39.68
2018-04-27T10:00:22.237Z,39.1
2018-04-27T10:01:22.469Z,39.2
2018-04-27T10:02:22.200Z,39.39
2018-04-27T10:03:22.439Z,39.2
2018-04-27T10:04:22.423Z,39.39
2018-04-27T10:05:22.446Z,39.1
2018-04-27T10:06:22.395Z,38.91
2018-04-27T10:07:22.387Z,38.74
2018-04-27T10:08:22.118Z,38.54
2018-04-27T10:09:22.355Z,38.45
2018-04-27T10:10:22.340Z,38.26
2018-04-27T10:11:22.328Z,38.26
2018-04-27T10:12:22.371Z,37.97
2018-04-27T10:13:22.050Z,37.68
2018-04-27T10:14:23.009Z,37.3
2018-04-27T10:15:22.268Z,37.49
2018-04-27T10:16:22.008Z,37.4
2018-04-27T10:17:22.245Z,37.3
2018-04-27T10:18:21.983Z,37.49
2018-04-27T10:19:22.218Z,37.4
2018-04-27T10:20:22.025Z,37.2
2018-04-27T10:21:22.189Z,37.11
2018-04-27T10:22:22.274Z,37.03
2018-04-27T10:23:22.158Z,37.03
2018-04-27T10:24:22.144Z,37.22
2018-04-27T10:25:22.131Z,37.22
2018-04-27T10:26:22.119Z,36.84
2018-04-27T10:27:21.857Z,36.66
2018-04-27T10:28:22.093Z,36.86
2018-04-27T10:29:21.829Z,36.49
2018-04-27T10:30:22.064Z,36.2
2018-04-27T10:31:22.057Z,36.2
2018-04-27T10:32:22.039Z,36.11
2018-04-27T10:33:22.022Z,35.93
2018-04-27T10:34:22.010Z,36.03
2018-04-27T10:35:21.754Z,35.36
2018-04-27T10:36:21.985Z,35.16
2018-04-27T10:37:21.975Z,34.97
2018-04-27T10:38:21.709Z,35.06
2018-04-27T10:39:21.958Z,35.16
2018-04-27T10:40:21.682Z,34.99
2018-04-27T10:41:21.916Z,34.89
2018-04-27T10:42:22.012Z,34.99
2018-04-27T10:43:21.892Z,34.89
2018-04-27T10:44:21.881Z,34.8
2018-04-27T10:45:21.625Z,34.8
2018-04-27T10:46:21.859Z,34.61
2018-04-27T10:47:21.845Z,34.7
2018-04-27T10:48:21.830Z,34.7
2018-04-27T10:49:21.823Z,34.78
2018-04-27T10:50:21.982Z,34.88
2018-04-27T10:51:21.799Z,34.59
2018-04-27T10:52:21.777Z,34.68
2018-04-27T10:53:21.769Z,34.38
2018-04-27T10:54:21.757Z,34.47
2018-04-27T10:55:21.493Z,34.47
2018-04-27T10:56:21.729Z,33.99
2018-04-27T10:57:21.718Z,33.9
2018-04-27T10:58:21.703Z,33.8
2018-04-27T10:59:21.443Z,33.8
2018-04-27T11:00:21.432Z,33.7
2018-04-27T11:01:21.432Z,33.69
2018-04-27T11:02:21.653Z,33.8
2018-04-27T11:03:21.717Z,34.38
2018-04-27T11:04:21.627Z,34.09
2018-04-27T11:05:21.616Z,33.72
2018-04-27T11:06:21.601Z,34.11
2018-04-27T11:07:21.597Z,34.01
2018-04-27T11:08:21.579Z,33.93
2018-04-27T11:09:21.567Z,33.74
2018-04-27T11:10:21.310Z,33.36
2018-04-27T11:11:21.545Z,33.47
2018-04-27T11:12:21.528Z,33.08
2018-04-27T11:13:21.516Z,32.98
2018-04-27T11:14:21.504Z,32.79
2018-04-27T11:15:21.496Z,32.6
2018-04-27T11:16:21.483Z,32.7
2018-04-27T11:17:21.470Z,32.6
2018-04-27T11:18:21.459Z,32.51
2018-04-27T11:19:21.442Z,32.31
2018-04-27T11:20:21.655Z,32.12
2018-04-27T11:21:21.171Z,32.12
2018-04-27T11:22:21.408Z,31.64
2018-04-27T11:23:21.403Z,31.45
2018-04-27T11:24:21.390Z,31.35
2018-04-27T11:25:21.370Z,31.34
2018-04-27T11:26:21.366Z,31.15
2018-04-27T11:27:21.353Z,30.85
2018-04-27T11:28:21.338Z,31.24
2018-04-27T11:29:21.326Z,30.76
2018-04-27T11:30:21.322Z,30.66
2018-04-27T11:31:21.301Z,30.57
2018-04-27T11:32:21.046Z,30.47
2018-04-27T11:33:21.278Z,30.47
2018-04-27T11:34:21.270Z,30.47
2018-04-27T11:35:21.363Z,30.57
2018-04-27T11:36:21.245Z,30
2018-04-27T11:37:21.228Z,29.72
2018-04-27T11:38:21.227Z,29.72
2018-04-27T11:39:20.957Z,29.81
2018-04-27T11:40:20.943Z,29.43
2018-04-27T11:41:21.330Z,29.43
2018-04-27T11:42:20.922Z,29.33
2018-04-27T11:43:21.157Z,29.24
2018-04-27T11:44:21.153Z,29.24
2018-04-27T11:45:21.135Z,28.95
2018-04-27T11:46:20.869Z,28.85
2018-04-27T11:47:20.857Z,28.47
2018-04-27T11:48:21.094Z,28.47
2018-04-27T11:49:21.083Z,28.38
2018-04-27T11:50:21.073Z,28.38
2018-04-27T11:51:21.065Z,28.09
2018-04-27T11:52:21.047Z,28.09
2018-04-27T11:53:21.089Z,27.81
2018-04-27T11:54:21.018Z,27.61
2018-04-27T11:55:21.010Z,27.61
2018-04-27T11:56:20.996Z,27.6
2018-04-27T11:57:20.985Z,28.08
2018-04-27T11:58:20.974Z,27.97
2018-04-27T11:59:20.962Z,28.36
2018-04-27T12:00:20.948Z,28.55
2018-04-27T12:01:20.933Z,28.25
2018-04-27T12:02:20.679Z,28.36
2018-04-27T12:03:20.929Z,28.55
2018-04-27T12:04:20.896Z,28.47
2018-04-27T12:05:20.910Z,28.47
2018-04-27T12:06:20.886Z,28.37
2018-04-27T12:07:20.869Z,28.19
2018-04-27T12:08:20.884Z,28.09
2018-04-27T12:09:20.832Z,28.19
2018-04-27T12:10:20.820Z,28.19
2018-04-27T12:11:20.922Z,28.09
2018-04-27T12:12:20.791Z,28.29
2018-04-27T12:13:20.784Z,28.38
2018-04-27T12:14:20.769Z,28.37
2018-04-27T12:15:20.752Z,28.27
2018-04-27T12:16:20.739Z,28.84
2018-04-27T12:17:20.736Z,29.13
2018-04-27T12:18:20.712Z,29.03
2018-04-27T12:19:20.451Z,29.03
2018-04-27T12:20:20.437Z,28.93
2018-04-27T12:21:20.423Z,28.93
2018-04-27T12:22:20.657Z,28.36
2018-04-27T12:23:20.650Z,28.47
2018-04-27T12:24:20.740Z,28.36
2018-04-27T12:25:20.617Z,28.84
2018-04-27T12:26:20.613Z,28.36
2018-04-27T12:27:20.663Z,28.27
2018-04-27T12:28:20.575Z,28.37
2018-04-27T12:29:20.573Z,28.37
2018-04-27T12:30:20.549Z,28.47
2018-04-27T12:31:20.819Z,28.37
2018-04-27T12:32:20.525Z,28.27
2018-04-27T12:33:20.513Z,28.37
2018-04-27T12:34:20.497Z,28.66
2018-04-27T12:35:20.482Z,28.37
2018-04-27T12:36:20.471Z,28.95
2018-04-27T12:37:20.460Z,29.04
2018-04-27T12:38:20.449Z,29.04
2018-04-27T12:39:20.434Z,28.29
2018-04-27T12:40:20.420Z,28.48
2018-04-27T12:41:20.407Z,28.48
2018-04-27T12:42:20.402Z,28.38
2018-04-27T12:43:20.382Z,28.48
2018-04-27T12:44:20.380Z,28.38
2018-04-27T12:45:20.359Z,28.29
2018-04-27T12:46:20.355Z,29.14
2018-04-27T12:47:20.331Z,29.33
2018-04-27T12:48:20.323Z,29.33
2018-04-27T12:49:20.305Z,29.14
2018-04-27T12:50:20.052Z,28.96
2018-04-27T12:51:20.292Z,29.15
2018-04-27T12:52:20.330Z,28.86
2018-04-27T12:53:20.258Z,28.48
2018-04-27T12:54:20.302Z,28.49